Time,TemperatureF,DewpointF,PressureIn,WindDirection,WindDirectionDegrees,WindSpeedMPH,WindSpeedGustMPH,Humidity,HourlyPrecipIn,Conditions,Clouds,dailyrainin,SolarRadiationWatts/m^2,SoftwareType,DateUTC
2013-01-24 00:01:00,47.4,44.0,30.30,NW,324,0.0,-999.0,88,-99.99,,,0.00,0,weatherlink.com 1.10,2013-01-24 05:01:00,
2013-01-24 00:16:00,47.1,44.0,30.30,NW,324,0.0,-999.0,88,-99.99,,,0.00,0,weatherlink.com 1.10,2013-01-24 05:16:00,
2013-01-24 00:31:00,47.0,44.0,30.29,NW,324,0.0,-999.0,89,-99.99,,,0.00,0,weatherlink.com 1.10,2013-01-24 05:31:00,
2013-01-24 00:46:00,46.8,44.0,30.30,NW,324,0.0,-999.0,89,-99.99,,,0.00,0,weatherlink.com 1.10,2013-01-24 05:46:00,
2013-01-24 01:01:00,46.9,44.0,30.29,NW,324,0.0,-999.0,90,-99.99,,,0.00,0,weatherlink.com 1.10,2013-01-24 06:01:00,
2013-01-24 01:16:00,46.8,44.0,30.28,NW,324,0.0,-999.0,90,-99.99,,,0.00,0,weatherlink.com 1.10,2013-01-24 06:16:00,
2013-01-24 01:31:00,46.7,44.0,30.27,NW,324,0.0,-999.0,90,-99.99,,,0.00,0,weatherlink.com 1.10,2013-01-24 06:31:00,
2013-01-24 01:46:00,46.4,44.0,30.27,NW,324,0.0,-999.0,90,-99.99,,,0.00,0,weatherlink.com 1.10,2013-01-24 06:46:00,
2013-01-24 02:01:00,46.2,44.0,30.27,NW,324,0.0,-999.0,90,-99.99,,,0.00,0,weatherlink.com 1.10,2013-01-24 07:01:00,
2013-01-24 02:16:00,46.0,44.0,30.27,NW,324,0.0,-999.0,91,-99.99,,,0.00,0,weatherlink.com 1.10,2013-01-24 07:16:00,
2013-01-24 02:31:00,45.7,43.0,30.26,NW,324,0.0,-999.0,91,-99.99,,,0.00,0,weatherlink.com 1.10,2013-01-24 07:31:00,
2013-01-24 02:46:00,45.5,43.0,30.26,NW,324,0.0,-999.0,91,-99.99,,,0.00,0,weatherlink.com 1.10,2013-01-24 07:46:00,
2013-01-24 03:01:00,45.5,43.0,30.25,NW,324,0.0,-999.0,92,-99.99,,,0.00,0,weatherlink.com 1.10,2013-01-24 08:01:00,
2013-01-24 03:16:00,45.6,44.0,30.25,NW,324,0.0,-999.0,92,-99.99,,,0.00,0,weatherlink.com 1.10,2013-01-24 08:16:00,
2013-01-24 03:32:00,45.8,44.0,30.25,NW,324,0.0,-999.0,93,-99.99,,,0.00,0,weatherlink.com 1.10,2013-01-24 08:32:00,
2013-01-24 03:46:00,45.9,44.0,30.25,NW,324,0.0,-999.0,93,-99.99,,,0.00,0,weatherlink.com 1.10,2013-01-24 08:46:00,
2013-01-24 04:01:00,45.5,44.0,30.25,NW,324,0.0,-999.0,93,-99.99,,,0.00,0,weatherlink.com 1.10,2013-01-24 09:01:00,
2013-01-24 04:17:00,45.3,43.0,30.26,NW,324,0.0,-999.0,93,-99.99,,,0.00,0,weatherlink.com 1.10,2013-01-24 09:17:00,
2013-01-24 04:31:00,45.1,43.0,30.26,NW,324,0.0,-999.0,93,-99.99,,,0.00,0,weatherlink.com 1.10,2013-01-24 09:31:00,
2013-01-24 04:47:00,45.0,43.0,30.26,NW,324,0.0,-999.0,93,-99.99,,,0.00,0,weatherlink.com 1.10,2013-01-24 09:47:00,
2013-01-24 05:02:00,45.4,44.0,30.26,NW,324,0.0,-999.0,94,-99.99,,,0.00,0,weatherlink.com 1.10,2013-01-24 10:02:00,
2013-01-24 05:17:00,46.0,44.0,30.26,NW,324,0.0,-999.0,94,-99.99,,,0.00,0,weatherlink.com 1.10,2013-01-24 10:17:00,
2013-01-24 05:32:00,46.8,46.0,30.28,NW,324,0.0,-999.0,95,-99.99,,,0.00,0,weatherlink.com 1.10,2013-01-24 10:32:00,
2013-01-24 05:47:00,49.1,48.0,30.27,NNW,334,0.0,-999.0,95,-99.99,,,0.00,0,weatherlink.com 1.10,2013-01-24 10:47:00,
2013-01-24 06:02:00,49.5,48.0,30.28,NNW,334,0.0,-999.0,94,-99.99,,,0.00,0,weatherlink.com 1.10,2013-01-24 11:02:00,
2013-01-24 06:17:00,49.7,48.0,30.28,NNW,334,0.0,-999.0,93,-99.99,,,0.00,0,weatherlink.com 1.10,2013-01-24 11:17:00,
2013-01-24 06:32:00,49.7,47.0,30.28,NNW,334,0.0,-999.0,91,-99.99,,,0.00,0,weatherlink.com 1.10,2013-01-24 11:32:00,
2013-01-24 06:47:00,49.5,47.0,30.29,NNW,334,0.0,-999.0,91,-99.99,,,0.00,0,weatherlink.com 1.10,2013-01-24 11:47:00,
2013-01-24 07:02:00,49.1,47.0,30.29,NNW,334,0.0,-999.0,91,-99.99,,,0.00,0,weatherlink.com 1.10,2013-01-24 12:02:00,
2013-01-24 07:17:00,49.2,47.0,30.29,NNW,334,0.0,-999.0,90,-99.99,,,0.00,0,weatherlink.com 1.10,2013-01-24 12:17:00,
2013-01-24 07:32:00,48.7,46.0,30.29,NNW,334,0.0,-999.0,90,-99.99,,,0.00,11,weatherlink.com 1.10,2013-01-24 12:32:00,
2013-01-24 07:47:00,48.1,45.0,30.29,NNW,334,0.0,-999.0,90,-99.99,,,0.00,35,weatherlink.com 1.10,2013-01-24 12:47:00,
2013-01-24 08:02:00,50.0,48.0,30.30,NNW,334,1.0,-999.0,92,-99.99,,,0.00,76,weatherlink.com 1.10,2013-01-24 13:02:00,
2013-01-24 08:17:00,53.2,50.0,30.30,North,349,2.0,-999.0,88,-99.99,,,0.00,127,weatherlink.com 1.10,2013-01-24 13:17:00,
2013-01-24 08:32:00,55.1,51.0,30.30,NNW,346,0.0,-999.0,85,-99.99,,,0.00,183,weatherlink.com 1.10,2013-01-24 13:32:00,
2013-01-24 08:47:00,56.6,51.0,30.31,North,360,0.0,-999.0,82,-99.99,,,0.00,239,weatherlink.com 1.10,2013-01-24 13:47:00,
2013-01-24 09:02:00,57.8,52.0,30.31,NNW,330,2.0,-999.0,80,-99.99,,,0.00,299,weatherlink.com 1.10,2013-01-24 14:02:00,
2013-01-24 09:17:00,59.0,52.0,30.32,NNW,338,0.0,-999.0,77,-99.99,,,0.00,345,weatherlink.com 1.10,2013-01-24 14:17:00,
2013-01-24 09:33:00,60.4,51.0,30.32,NNE,19,1.0,-999.0,72,-99.99,,,0.00,396,weatherlink.com 1.10,2013-01-24 14:33:00,
2013-01-24 09:48:00,61.4,49.0,30.33,NW,314,1.0,-999.0,65,-99.99,,,0.00,441,weatherlink.com 1.10,2013-01-24 14:48:00,
2013-01-24 10:02:00,62.3,49.0,30.33,NNW,347,1.0,-999.0,62,-99.99,,,0.00,483,weatherlink.com 1.10,2013-01-24 15:02:00,
2013-01-24 10:18:00,63.6,46.0,30.33,NNW,338,3.0,-999.0,54,-99.99,,,0.00,519,weatherlink.com 1.10,2013-01-24 15:18:00,
2013-01-24 10:33:00,64.1,46.0,30.34,NNW,335,4.0,-999.0,53,-99.99,,,0.00,555,weatherlink.com 1.10,2013-01-24 15:33:00,
2013-01-24 10:48:00,65.2,47.0,30.33,NNW,344,0.0,-999.0,53,-99.99,,,0.00,589,weatherlink.com 1.10,2013-01-24 15:48:00,
2013-01-24 11:03:00,66.9,48.0,30.33,NNW,344,3.0,-999.0,51,-99.99,,,0.00,622,weatherlink.com 1.10,2013-01-24 16:03:00,
2013-01-24 11:18:00,67.2,48.0,30.32,NE,55,0.0,-999.0,51,-99.99,,,0.00,649,weatherlink.com 1.10,2013-01-24 16:18:00,
2013-01-24 11:33:00,67.6,48.0,30.31,NW,312,4.0,-999.0,50,-99.99,,,0.00,664,weatherlink.com 1.10,2013-01-24 16:33:00,
2013-01-24 11:48:00,68.0,48.0,30.31,NNW,329,4.0,-999.0,49,-99.99,,,0.00,680,weatherlink.com 1.10,2013-01-24 16:48:00,
2013-01-24 12:03:00,68.5,48.0,30.31,North,5,1.0,-999.0,49,-99.99,,,0.00,691,weatherlink.com 1.10,2013-01-24 17:03:00,
2013-01-24 12:18:00,69.4,48.0,30.30,North,355,3.0,-999.0,46,-99.99,,,0.00,703,weatherlink.com 1.10,2013-01-24 17:18:00,
2013-01-24 12:33:00,69.6,47.0,30.30,North,360,3.0,-999.0,44,-99.99,,,0.00,705,weatherlink.com 1.10,2013-01-24 17:33:00,
2013-01-24 12:48:00,70.4,46.0,30.29,NNW,344,1.0,-999.0,42,-99.99,,,0.00,703,weatherlink.com 1.10,2013-01-24 17:48:00,
2013-01-24 13:03:00,70.5,46.0,30.28,NW,309,2.0,-999.0,42,-99.99,,,0.00,705,weatherlink.com 1.10,2013-01-24 18:03:00,
2013-01-24 13:18:00,70.8,46.0,30.27,NNW,336,1.0,-999.0,41,-99.99,,,0.00,694,weatherlink.com 1.10,2013-01-24 18:18:00,
2013-01-24 13:33:00,70.8,46.0,30.26,NW,314,0.0,-999.0,42,-99.99,,,0.00,686,weatherlink.com 1.10,2013-01-24 18:33:00,
2013-01-24 13:49:00,71.0,49.0,30.26,NNW,342,4.0,-999.0,45,-99.99,,,0.00,659,weatherlink.com 1.10,2013-01-24 18:49:00,
2013-01-24 14:03:00,70.4,48.0,30.25,WNW,300,4.0,-999.0,45,-99.99,,,0.00,622,weatherlink.com 1.10,2013-01-24 19:03:00,
2013-01-24 14:18:00,69.8,49.0,30.25,North,5,4.0,-999.0,48,-99.99,,,0.00,573,weatherlink.com 1.10,2013-01-24 19:18:00,
2013-01-24 14:34:00,69.6,49.0,30.25,North,350,7.0,-999.0,48,-99.99,,,0.00,561,weatherlink.com 1.10,2013-01-24 19:34:00,
2013-01-24 14:48:00,69.6,49.0,30.25,NW,309,8.0,-999.0,48,-99.99,,,0.00,555,weatherlink.com 1.10,2013-01-24 19:48:00,
2013-01-24 15:04:00,69.5,48.0,30.24,NW,322,3.0,-999.0,47,-99.99,,,0.00,524,weatherlink.com 1.10,2013-01-24 20:04:00,
2013-01-24 15:18:00,69.2,48.0,30.25,NNW,334,4.0,-999.0,47,-99.99,,,0.00,439,weatherlink.com 1.10,2013-01-24 20:18:00,
2013-01-24 15:33:00,69.0,48.0,30.25,NW,315,3.0,-999.0,47,-99.99,,,0.00,299,weatherlink.com 1.10,2013-01-24 20:33:00,
2013-01-24 15:48:00,68.4,49.0,30.25,NNW,327,0.0,-999.0,50,-99.99,,,0.00,213,weatherlink.com 1.10,2013-01-24 20:48:00,
2013-01-24 16:03:00,68.1,50.0,30.25,NW,315,5.0,-999.0,52,-99.99,,,0.00,236,weatherlink.com 1.10,2013-01-24 21:03:00,
2013-01-24 16:18:00,67.4,51.0,30.25,NNW,348,3.0,-999.0,56,-99.99,,,0.00,160,weatherlink.com 1.10,2013-01-24 21:18:00,
2013-01-24 16:34:00,67.0,52.0,30.25,NW,309,1.0,-999.0,59,-99.99,,,0.00,107,weatherlink.com 1.10,2013-01-24 21:34:00,
2013-01-24 16:48:00,66.5,52.0,30.25,NNW,328,3.0,-999.0,60,-99.99,,,0.00,51,weatherlink.com 1.10,2013-01-24 21:48:00,
2013-01-24 17:03:00,66.1,53.0,30.25,NW,320,1.0,-999.0,62,-99.99,,,0.00,63,weatherlink.com 1.10,2013-01-24 22:03:00,
2013-01-24 17:18:00,65.5,52.0,30.25,NNW,328,1.0,-999.0,63,-99.99,,,0.00,37,weatherlink.com 1.10,2013-01-24 22:18:00,
2013-01-24 17:33:00,64.9,53.0,30.25,NW,320,3.0,-999.0,65,-99.99,,,0.00,23,weatherlink.com 1.10,2013-01-24 22:33:00,
2013-01-24 17:48:00,64.4,53.0,30.25,NW,319,5.0,-999.0,67,-99.99,,,0.00,12,weatherlink.com 1.10,2013-01-24 22:48:00,
2013-01-24 18:04:00,63.9,53.0,30.25,NNW,333,0.0,-999.0,68,-99.99,,,0.00,5,weatherlink.com 1.10,2013-01-24 23:04:00,
2013-01-24 18:19:00,63.2,53.0,30.25,WNW,301,2.0,-999.0,70,-99.99,,,0.00,0,weatherlink.com 1.10,2013-01-24 23:19:00,
2013-01-24 18:34:00,62.7,54.0,30.26,NNW,333,0.0,-999.0,72,-99.99,,,0.00,0,weatherlink.com 1.10,2013-01-24 23:34:00,
2013-01-24 18:48:00,62.1,54.0,30.26,NW,325,3.0,-999.0,74,-99.99,,,0.00,0,weatherlink.com 1.10,2013-01-24 23:48:00,
2013-01-24 19:03:00,61.8,54.0,30.26,North,355,1.0,-999.0,76,-99.99,,,0.00,0,weatherlink.com 1.10,2013-01-25 00:03:00,
2013-01-24 19:18:00,61.4,54.0,30.27,NNW,344,0.0,-999.0,77,-99.99,,,0.00,0,weatherlink.com 1.10,2013-01-25 00:18:00,
2013-01-24 19:33:00,60.9,54.0,30.27,NW,320,2.0,-999.0,79,-99.99,,,0.00,0,weatherlink.com 1.10,2013-01-25 00:33:00,
2013-01-24 19:49:00,60.4,54.0,30.27,NW,320,0.0,-999.0,80,-99.99,,,0.00,0,weatherlink.com 1.10,2013-01-25 00:49:00,
2013-01-24 20:04:00,59.7,54.0,30.27,NW,320,0.0,-999.0,81,-99.99,,,0.00,0,weatherlink.com 1.10,2013-01-25 01:04:00,
2013-01-24 20:18:00,58.8,54.0,30.27,NW,320,0.0,-999.0,83,-99.99,,,0.00,0,weatherlink.com 1.10,2013-01-25 01:18:00,
2013-01-24 20:33:00,58.0,53.0,30.27,NW,320,0.0,-999.0,84,-99.99,,,0.00,0,weatherlink.com 1.10,2013-01-25 01:33:00,
2013-01-24 20:48:00,57.2,53.0,30.27,NW,320,0.0,-999.0,86,-99.99,,,0.00,0,weatherlink.com 1.10,2013-01-25 01:48:00,
2013-01-24 21:03:00,56.2,52.0,30.27,NW,320,0.0,-999.0,87,-99.99,,,0.00,0,weatherlink.com 1.10,2013-01-25 02:03:00,
2013-01-24 21:19:00,55.4,52.0,30.27,NW,320,0.0,-999.0,88,-99.99,,,0.00,0,weatherlink.com 1.10,2013-01-25 02:19:00,
2013-01-24 21:33:00,54.8,52.0,30.27,NW,320,0.0,-999.0,89,-99.99,,,0.00,0,weatherlink.com 1.10,2013-01-25 02:33:00,
2013-01-24 21:49:00,54.3,52.0,30.27,NW,320,0.0,-999.0,90,-99.99,,,0.00,0,weatherlink.com 1.10,2013-01-25 02:49:00,
2013-01-24 22:04:00,54.0,52.0,30.28,NW,320,0.0,-999.0,91,-99.99,,,0.00,0,weatherlink.com 1.10,2013-01-25 03:04:00,
2013-01-24 22:19:00,53.6,51.0,30.28,NW,320,0.0,-999.0,91,-99.99,,,0.00,0,weatherlink.com 1.10,2013-01-25 03:19:00,
2013-01-24 22:34:00,53.2,51.0,30.28,NW,320,0.0,-999.0,91,-99.99,,,0.00,0,weatherlink.com 1.10,2013-01-25 03:34:00,
2013-01-24 22:49:00,52.8,51.0,30.28,NW,320,0.0,-999.0,92,-99.99,,,0.00,0,weatherlink.com 1.10,2013-01-25 03:49:00,
2013-01-24 23:04:00,52.5,50.0,30.28,NW,320,0.0,-999.0,92,-99.99,,,0.00,0,weatherlink.com 1.10,2013-01-25 04:04:00,
2013-01-24 23:19:00,52.2,50.0,30.28,NW,320,0.0,-999.0,93,-99.99,,,0.00,0,weatherlink.com 1.10,2013-01-25 04:19:00,
2013-01-24 23:34:00,51.8,50.0,30.28,NW,320,0.0,-999.0,93,-99.99,,,0.00,0,weatherlink.com 1.10,2013-01-25 04:34:00,
2013-01-24 23:49:00,51.4,50.0,30.28,NW,320,0.0,-999.0,93,-99.99,,,0.00,0,weatherlink.com 1.10,2013-01-25 04:49:00,